Airfield :
LOGIN :

Register | Disclaimer

   EN    FR    IT 

 










Legend :    VFR   Marginal VFR   IFR   Intensive IFR   Very Intensive IFR
Visi :
Ceiling :
>= 8 km
>= 3000ft
5 to 8 km
1000 to 3000 ft
1500m to 5 km
500 to 1000 ft
800 to 1500m
200 to 500 ft
< 800m
< 200 ft
Symbols :   Thunderstorms  Fog  Heavy snow  Heavy precipitations  Wind > 20 kt
SIGMETs :     Misc.  Thunderstorms  Icing  Turbulence  Mountain Waves  Volcanic Ashes






- Airport Elevation : 82 ft
- IATA code : QIE


LFMI - Istres

CURRENT METAR :
  • 120830Z AUTO 10006KT CAVOK 28/17 Q1015 BECMG 17012KT

EXPIRED METARs :
  • 120800Z AUTO /////KT 9999 // NSC 28/17 Q1016
  • 120730Z AUTO /////KT 9999 // NSC 27/18 Q1015
  • 120700Z AUTO /////KT 9999 // NSC 26/19 Q1015
  • 120630Z AUTO VRB03KT CAVOK 24/19 Q1015 NOSIG
  • 120600Z AUTO 05004KT CAVOK 22/18 Q1015 NOSIG

TAF TAF LFMI
Valid from the 12 at 09:00 until the 13 at 09:00 UTC


120800Z 1209/1309 11005KT CAVOK
BECMG 1209/1211 17012KT
BECMG 1219/1221 VRB03KT
PROB40
TEMPO 1221/1307 SHRA SCT090TCU
PROB30
TEMPO 1221/1307 -TSRA SCT090CB
BECMG 1308/1309 17012KT



MET'MAP, your aeronautical weather chart ! - Copyright ORBIFLY December 2007 - Disclaimer

ORBIFLY MET'MAP TEAM :

Programming & Development : Alexandra Zaïnal
Concept & original design : Baudouin d'Aumeries
Assistance for programming : Marc-Olivier Méhu
Technical & hardware support : Manuel Goepfert

Contact : metmap@orbifly.com




SOURCES & CREDITS :

   NOAA